createdAt,value
2023-03-18T00:02:00.328Z,1.80
2023-03-18T00:04:31.045Z,2.00
2023-03-18T00:07:02.554Z,1.73
2023-03-18T00:09:32.837Z,2.45
2023-03-18T00:12:03.342Z,1.30
2023-03-18T00:14:38.488Z,2.10
2023-03-18T00:17:10.095Z,2.10
2023-03-18T00:19:40.304Z,1.45
2023-03-18T00:22:10.911Z,2.10
2023-03-18T00:24:41.305Z,1.75
2023-03-18T00:27:11.867Z,1.70
2023-03-18T00:29:43.659Z,1.70
2023-03-18T00:32:13.736Z,1.27
2023-03-18T00:34:44.264Z,2.10
2023-03-18T00:37:19.240Z,2.00
2023-03-18T00:39:49.828Z,1.30
2023-03-18T00:42:20.523Z,1.75
2023-03-18T00:44:53.664Z,1.75
2023-03-18T00:47:23.627Z,1.50
2023-03-18T00:49:54.101Z,1.35
2023-03-18T00:52:24.252Z,1.55
2023-03-18T00:54:54.838Z,1.70
2023-03-18T00:57:25.574Z,2.25
2023-03-18T00:59:59.786Z,1.92
2023-03-18T01:02:31.060Z,1.58
2023-03-18T01:05:01.666Z,1.42
2023-03-18T01:07:32.844Z,1.23
2023-03-18T01:10:03.584Z,1.88
2023-03-18T01:12:33.674Z,2.25
2023-03-18T01:15:06.878Z,1.45
2023-03-18T01:17:38.097Z,2.05
2023-03-18T01:20:10.162Z,1.98
2023-03-18T01:22:42.169Z,1.35
2023-03-18T01:25:16.212Z,1.77
2023-03-18T01:27:46.664Z,1.27
2023-03-18T01:30:20.177Z,1.48
2023-03-18T01:32:50.376Z,1.40
2023-03-18T01:35:21.137Z,1.40
2023-03-18T01:37:52.031Z,1.50
2023-03-18T01:40:23.263Z,1.98
2023-03-18T01:42:59.431Z,1.75
2023-03-18T01:45:34.133Z,1.63
2023-03-18T01:48:04.947Z,1.70
2023-03-18T01:50:39.703Z,1.45
2023-03-18T01:53:16.718Z,1.30
2023-03-18T01:55:50.176Z,1.60
2023-03-18T01:58:26.812Z,1.73
2023-03-18T02:01:06.186Z,1.27
2023-03-18T02:03:37.980Z,1.45
2023-03-18T02:06:10.676Z,1.48
2023-03-18T02:08:43.122Z,1.63
2023-03-18T02:11:14.890Z,1.90
2023-03-18T02:13:48.681Z,1.45
2023-03-18T02:16:28.090Z,1.58
2023-03-18T02:19:05.835Z,1.55
2023-03-18T02:21:50.155Z,1.48
2023-03-18T02:24:36.179Z,1.48
2023-03-18T02:27:18.863Z,3.50
2023-03-18T02:29:50.941Z,1.60
2023-03-18T02:32:22.968Z,1.10
2023-03-18T02:34:53.858Z,1.38
2023-03-18T02:37:24.750Z,1.52
2023-03-18T02:39:55.350Z,1.25
2023-03-18T02:42:35.213Z,1.55
2023-03-18T02:45:06.211Z,1.20
2023-03-18T02:47:36.761Z,1.42
2023-03-18T02:50:08.335Z,1.85
2023-03-18T02:52:39.241Z,1.40
2023-03-18T02:55:10.991Z,1.38
2023-03-18T02:57:43.512Z,1.88
2023-03-18T03:00:15.326Z,1.40
2023-03-18T03:02:45.844Z,2.00
2023-03-18T03:05:15.996Z,2.03
2023-03-18T03:07:46.481Z,1.40
2023-03-18T03:10:17.163Z,1.60
2023-03-18T03:12:49.639Z,1.35
2023-03-18T03:15:20.173Z,2.10
2023-03-18T03:17:50.932Z,2.40
2023-03-18T03:20:21.176Z,2.00
2023-03-18T03:22:54.636Z,2.25
2023-03-18T03:25:25.616Z,1.70
2023-03-18T03:27:57.446Z,1.40
2023-03-18T03:30:28.538Z,1.80
2023-03-18T03:32:58.735Z,1.30
2023-03-18T03:35:29.745Z,1.95
2023-03-18T03:38:00.446Z,2.67
2023-03-18T03:40:31.354Z,1.48
2023-03-18T03:43:03.770Z,2.10
2023-03-18T03:45:34.903Z,1.20
2023-03-18T03:48:06.000Z,2.10
2023-03-18T03:50:36.727Z,1.40
2023-03-18T03:53:07.164Z,1.48
2023-03-18T03:55:37.435Z,2.33
2023-03-18T03:58:10.199Z,0.98
2023-03-18T04:00:40.350Z,1.42
2023-03-18T04:03:10.899Z,1.33
2023-03-18T04:05:41.972Z,1.10
2023-03-18T04:08:12.475Z,0.98
2023-03-18T04:10:43.018Z,1.70
2023-03-18T04:13:15.539Z,1.48
2023-03-18T04:15:48.089Z,1.38
2023-03-18T04:18:18.061Z,1.92
2023-03-18T04:20:48.338Z,2.17
2023-03-18T04:23:18.940Z,1.55
2023-03-18T04:25:49.640Z,0.98
2023-03-18T04:28:22.281Z,1.00
2023-03-18T04:30:53.018Z,1.10
2023-03-18T04:33:23.347Z,1.27
2023-03-18T04:35:54.116Z,1.17
2023-03-18T04:38:24.988Z,1.48
2023-03-18T04:40:54.714Z,1.02
2023-03-18T04:43:27.134Z,1.40
2023-03-18T04:45:57.031Z,1.20
2023-03-18T04:48:27.619Z,1.52
2023-03-18T04:50:58.011Z,1.17
2023-03-18T04:53:28.775Z,1.45
2023-03-18T04:55:58.955Z,1.08
2023-03-18T04:58:31.344Z,1.98
2023-03-18T05:01:02.471Z,1.70
2023-03-18T05:03:32.843Z,1.20
2023-03-18T05:06:02.826Z,1.17
2023-03-18T05:08:33.734Z,1.80
2023-03-18T05:11:03.936Z,1.27
2023-03-18T05:13:35.275Z,1.23
2023-03-18T05:16:05.717Z,1.50
2023-03-18T05:18:36.060Z,1.38
2023-03-18T05:21:07.819Z,1.00
2023-03-18T05:23:38.247Z,1.52
2023-03-18T05:26:08.723Z,2.28
2023-03-18T05:28:41.689Z,1.02
2023-03-18T05:31:11.744Z,2.58
2023-03-18T05:33:43.008Z,1.52
2023-03-18T05:36:13.749Z,1.13
2023-03-18T05:38:44.863Z,2.97
2023-03-18T05:41:15.380Z,1.40
2023-03-18T05:43:48.026Z,1.35
2023-03-18T05:46:18.500Z,1.88
2023-03-18T05:48:48.988Z,1.13
2023-03-18T05:51:19.559Z,1.38
2023-03-18T05:53:50.044Z,1.50
2023-03-18T05:56:21.002Z,1.58
2023-03-18T05:58:53.497Z,2.10
2023-03-18T06:01:26.023Z,1.17
2023-03-18T06:03:56.950Z,1.42
2023-03-18T06:06:26.814Z,2.42
2023-03-18T06:08:59.713Z,1.30
2023-03-18T06:11:30.048Z,1.60
2023-03-18T06:14:02.430Z,1.23
2023-03-18T06:16:34.288Z,1.45
2023-03-18T06:19:05.826Z,1.65
2023-03-18T06:21:36.594Z,1.55
2023-03-18T06:24:07.096Z,1.55
2023-03-18T06:26:36.775Z,1.50
2023-03-18T06:29:11.200Z,1.70
2023-03-18T06:31:41.819Z,2.05
2023-03-18T06:34:13.491Z,1.45
2023-03-18T06:36:43.765Z,1.00
2023-03-18T06:39:14.716Z,2.05
2023-03-18T06:41:45.329Z,1.67
2023-03-18T06:44:17.866Z,1.20
2023-03-18T06:46:48.036Z,1.20
2023-03-18T06:49:19.546Z,1.33
2023-03-18T06:51:50.224Z,1.42
2023-03-18T06:54:20.795Z,1.88
2023-03-18T06:56:51.250Z,1.02
2023-03-18T06:59:24.065Z,1.33
2023-03-18T07:01:54.388Z,1.30
2023-03-18T07:04:26.593Z,1.02
2023-03-18T07:06:58.121Z,0.85
2023-03-18T07:09:28.352Z,1.00
2023-03-18T07:11:58.970Z,0.73
2023-03-18T07:14:31.033Z,1.48
2023-03-18T07:17:03.318Z,1.73
2023-03-18T07:19:33.851Z,1.50
2023-03-18T07:22:05.044Z,0.73
2023-03-18T07:24:36.546Z,0.73
2023-03-18T07:27:07.291Z,0.95
2023-03-18T07:29:39.906Z,1.38
2023-03-18T07:32:10.783Z,0.60
2023-03-18T07:34:41.061Z,1.15
2023-03-18T07:37:12.208Z,1.05
2023-03-18T07:39:43.906Z,1.05
2023-03-18T07:42:14.798Z,1.52
2023-03-18T07:44:47.328Z,1.67
2023-03-18T07:47:18.166Z,1.08
2023-03-18T07:49:48.418Z,1.80
2023-03-18T07:52:18.391Z,0.98
2023-03-18T07:54:49.005Z,0.60
2023-03-18T07:57:19.694Z,1.17
2023-03-18T07:59:52.782Z,1.42
2023-03-18T08:02:23.949Z,0.68
2023-03-18T08:04:54.154Z,0.57
2023-03-18T08:07:24.920Z,0.65
2023-03-18T08:09:55.704Z,1.67
2023-03-18T08:12:26.396Z,1.17
2023-03-18T08:15:00.244Z,2.05
2023-03-18T08:17:30.149Z,2.30
2023-03-18T08:20:00.239Z,2.35
2023-03-18T08:22:30.713Z,1.83
2023-03-18T08:25:01.753Z,2.45
2023-03-18T08:27:32.048Z,1.85
2023-03-18T08:30:04.185Z,2.45
2023-03-18T08:32:34.681Z,1.92
2023-03-18T08:35:05.652Z,2.33
2023-03-18T08:37:36.372Z,3.47
2023-03-18T08:40:10.122Z,3.00
2023-03-18T08:42:39.928Z,4.15
2023-03-18T08:45:14.762Z,3.75
2023-03-18T08:47:45.459Z,3.90
2023-03-18T08:50:16.812Z,3.83
2023-03-18T08:52:47.068Z,3.95
2023-03-18T08:55:17.497Z,4.40
2023-03-18T08:57:48.381Z,3.63
2023-03-18T09:00:22.182Z,3.40
2023-03-18T09:02:52.776Z,3.75
2023-03-18T09:05:23.344Z,5.57
2023-03-18T09:07:54.572Z,5.25
2023-03-18T09:10:24.695Z,4.40
2023-03-18T09:12:54.981Z,4.70
2023-03-18T09:15:27.987Z,5.32
2023-03-18T09:18:10.733Z,4.47
2023-03-18T09:20:43.691Z,3.58
2023-03-18T09:23:18.569Z,2.53
2023-03-18T09:25:50.603Z,3.00
2023-03-18T09:28:20.818Z,2.72
2023-03-18T09:30:53.838Z,3.03
2023-03-18T09:33:24.986Z,2.42
2023-03-18T09:35:55.612Z,2.17
2023-03-18T09:38:26.164Z,1.80
2023-03-18T09:41:10.841Z,1.80
2023-03-18T09:43:59.846Z,2.55
2023-03-18T09:46:57.380Z,2.25
2023-03-18T09:50:00.097Z,1.70
2023-03-18T09:52:38.226Z,4.22
2023-03-18T09:55:20.213Z,2.33
2023-03-18T09:57:54.518Z,1.40
2023-03-18T10:00:31.628Z,1.52
2023-03-18T10:03:09.504Z,2.05
2023-03-18T10:05:50.605Z,1.80
2023-03-18T10:08:35.207Z,2.17
2023-03-18T10:11:15.207Z,2.15
2023-03-18T10:13:54.988Z,1.90
2023-03-18T10:16:32.431Z,1.55
2023-03-18T10:19:04.492Z,1.10
2023-03-18T10:21:48.983Z,1.13
2023-03-18T10:24:34.435Z,1.10
2023-03-18T10:27:19.562Z,1.92
2023-03-18T10:30:00.807Z,1.58
2023-03-18T10:32:49.828Z,5.43
2023-03-18T10:35:37.207Z,3.28
2023-03-18T10:38:20.809Z,2.10
2023-03-18T10:40:52.159Z,1.77
2023-03-18T10:43:28.489Z,1.92
2023-03-18T10:46:04.456Z,2.00
2023-03-18T10:48:40.715Z,1.75
2023-03-18T10:51:22.336Z,1.20
2023-03-18T10:54:01.012Z,1.27
2023-03-18T10:56:31.190Z,1.40
2023-03-18T10:59:01.885Z,1.20
2023-03-18T11:01:32.039Z,0.65
2023-03-18T11:04:06.639Z,1.10
2023-03-18T11:06:47.242Z,0.82
2023-03-18T11:09:23.084Z,0.55
2023-03-18T11:12:00.745Z,1.10
2023-03-18T11:14:37.771Z,1.00
2023-03-18T11:17:22.452Z,1.15
2023-03-18T11:20:05.382Z,0.90
2023-03-18T11:22:39.106Z,1.15
2023-03-18T11:25:18.528Z,0.50
2023-03-18T11:27:51.484Z,0.77
2023-03-18T11:30:34.071Z,0.70
2023-03-18T11:33:20.157Z,0.47
2023-03-18T11:35:55.610Z,0.65
2023-03-18T11:38:32.252Z,0.47
2023-03-18T11:41:11.419Z,1.02
2023-03-18T11:43:56.376Z,0.73
2023-03-18T11:46:30.262Z,0.70
2023-03-18T11:49:01.447Z,0.98
2023-03-18T11:51:48.038Z,1.23
2023-03-18T11:54:57.250Z,0.88
2023-03-18T11:57:41.944Z,0.85
2023-03-18T12:00:35.460Z,0.40
2023-03-18T12:04:10.727Z,0.88
2023-03-18T12:06:54.388Z,0.43
2023-03-18T12:09:41.250Z,0.40
2023-03-18T12:12:38.782Z,0.50
2023-03-18T12:15:25.039Z,1.00
2023-03-18T12:18:10.996Z,0.40
2023-03-18T12:20:52.951Z,0.45
2023-03-18T12:23:56.759Z,1.20
2023-03-18T12:26:42.031Z,0.43
2023-03-18T12:29:52.937Z,0.55
2023-03-18T12:32:32.467Z,1.08
2023-03-18T12:35:45.168Z,1.13
2023-03-18T12:39:09.556Z,0.63
2023-03-18T12:41:57.706Z,1.35
2023-03-18T12:44:47.214Z,0.80
2023-03-18T12:47:26.158Z,0.82
2023-03-18T12:50:03.081Z,0.70
2023-03-18T12:52:44.218Z,1.10
2023-03-18T12:55:24.347Z,1.23
2023-03-18T12:58:01.673Z,1.95
2023-03-18T13:00:40.360Z,0.57
2023-03-18T13:03:33.893Z,0.60
2023-03-18T13:06:12.627Z,0.68
2023-03-18T13:09:08.623Z,0.77
2023-03-18T13:12:05.020Z,0.95
2023-03-18T13:14:50.565Z,0.65
2023-03-18T13:17:30.185Z,0.93
2023-03-18T13:20:04.248Z,0.60
2023-03-18T13:23:09.361Z,0.68
2023-03-18T13:25:48.190Z,1.45
2023-03-18T13:28:53.654Z,0.70
2023-03-18T13:31:40.873Z,1.20
2023-03-18T13:34:37.053Z,0.82
2023-03-18T13:37:45.121Z,1.50
2023-03-18T13:40:55.388Z,0.80
2023-03-18T13:43:28.432Z,0.55
2023-03-18T13:46:01.978Z,0.93
2023-03-18T13:48:37.322Z,0.63
2023-03-18T13:51:42.315Z,0.68
2023-03-18T13:54:19.859Z,0.55
2023-03-18T13:56:56.128Z,0.57
2023-03-18T13:59:50.422Z,0.75
2023-03-18T14:02:47.901Z,0.77
2023-03-18T14:05:42.844Z,0.38
2023-03-18T14:08:51.528Z,0.80
2023-03-18T14:11:50.558Z,0.93
2023-03-18T14:14:57.807Z,0.30
2023-03-18T14:17:58.814Z,0.38
2023-03-18T14:20:42.468Z,0.40
2023-03-18T14:23:42.179Z,1.85
2023-03-18T14:26:24.735Z,0.77
2023-03-18T14:29:17.652Z,0.60
2023-03-18T14:32:08.806Z,0.60
2023-03-18T14:34:59.059Z,1.17
2023-03-18T14:37:34.538Z,0.63
2023-03-18T14:40:15.216Z,0.52
2023-03-18T14:42:59.978Z,1.33
2023-03-18T14:45:35.902Z,1.05
2023-03-18T14:48:17.139Z,1.08
2023-03-18T14:50:51.969Z,1.13
2023-03-18T14:53:30.464Z,1.35
2023-03-18T14:56:01.897Z,1.17
2023-03-18T14:58:32.604Z,0.90
2023-03-18T15:01:11.392Z,1.40
2023-03-18T15:03:45.784Z,0.55
2023-03-18T15:06:23.583Z,0.45
2023-03-18T15:09:03.275Z,0.73
2023-03-18T15:11:40.772Z,0.88
2023-03-18T15:14:17.144Z,0.85
2023-03-18T15:16:52.443Z,0.77
2023-03-18T15:19:26.832Z,1.20
2023-03-18T15:21:58.828Z,0.90
2023-03-18T15:24:30.767Z,0.50
2023-03-18T15:27:07.446Z,1.42
2023-03-18T15:29:46.454Z,0.65
2023-03-18T15:32:22.350Z,0.50
2023-03-18T15:34:56.882Z,1.42
2023-03-18T15:37:41.018Z,0.75
2023-03-18T15:40:32.478Z,1.15
2023-03-18T15:43:15.661Z,0.65
2023-03-18T15:45:54.932Z,1.23
2023-03-18T15:48:33.610Z,0.60
2023-03-18T15:51:07.758Z,1.20
2023-03-18T15:53:48.159Z,1.15
2023-03-18T15:56:27.372Z,0.70
2023-03-18T15:59:07.366Z,0.60
2023-03-18T16:01:38.776Z,0.85
2023-03-18T16:04:13.342Z,1.48
2023-03-18T16:06:43.572Z,1.58
2023-03-18T16:09:20.077Z,0.60
2023-03-18T16:11:57.719Z,1.73
2023-03-18T16:14:37.296Z,0.47
2023-03-18T16:17:08.033Z,1.23
2023-03-18T16:19:38.678Z,0.63
2023-03-18T16:22:09.079Z,1.02
2023-03-18T16:24:41.837Z,1.08
2023-03-18T16:27:31.131Z,1.30
2023-03-18T16:30:01.221Z,1.35
2023-03-18T16:32:31.578Z,1.95
2023-03-18T16:35:01.584Z,0.93
2023-03-18T16:37:31.977Z,0.77
2023-03-18T16:40:03.623Z,0.50
2023-03-18T16:42:36.440Z,1.80
2023-03-18T16:45:08.951Z,1.35
2023-03-18T16:47:39.329Z,1.10
2023-03-18T16:50:19.535Z,0.95
2023-03-18T16:52:50.712Z,1.27
2023-03-18T16:55:22.179Z,1.00
2023-03-18T16:57:58.373Z,1.63
2023-03-18T17:00:33.686Z,1.20
2023-03-18T17:03:04.500Z,1.42
2023-03-18T17:05:35.277Z,1.08
2023-03-18T17:08:05.180Z,0.80
2023-03-18T17:10:37.245Z,1.20
2023-03-18T17:13:13.714Z,1.30
2023-03-18T17:15:45.323Z,1.40
2023-03-18T17:18:19.424Z,3.10
2023-03-18T17:20:50.598Z,1.30
2023-03-18T17:23:23.472Z,1.10
2023-03-18T17:25:57.176Z,1.42
2023-03-18T17:28:39.973Z,2.05
2023-03-18T17:31:12.388Z,1.17
2023-03-18T17:33:42.827Z,0.60
2023-03-18T17:36:14.069Z,0.95
2023-03-18T17:38:44.170Z,0.55
2023-03-18T17:41:22.186Z,0.55
2023-03-18T17:43:54.204Z,0.93
2023-03-18T17:46:24.772Z,0.20
2023-03-18T17:48:54.626Z,1.00
2023-03-18T17:51:27.774Z,0.88
2023-03-18T17:54:02.709Z,0.98
2023-03-18T17:56:32.948Z,0.93
2023-03-18T17:59:08.471Z,1.35
2023-03-18T18:01:38.918Z,0.93
2023-03-18T18:04:09.782Z,0.52
2023-03-18T18:06:40.058Z,0.75
2023-03-18T18:09:13.695Z,0.85
2023-03-18T18:11:47.256Z,0.80
2023-03-18T18:14:34.742Z,0.85
2023-03-18T18:17:05.414Z,0.85
2023-03-18T18:19:35.404Z,0.90
2023-03-18T18:22:06.373Z,0.80
2023-03-18T18:24:36.939Z,1.10
2023-03-18T18:27:07.957Z,1.08
2023-03-18T18:29:39.967Z,0.32
2023-03-18T18:32:10.397Z,0.88
2023-03-18T18:34:41.151Z,0.60
2023-03-18T18:37:11.765Z,0.63
2023-03-18T18:39:41.767Z,0.82
2023-03-18T18:42:12.718Z,0.30
2023-03-18T18:44:44.707Z,0.85
2023-03-18T18:47:22.176Z,1.35
2023-03-18T18:49:52.995Z,0.60
2023-03-18T18:52:23.409Z,0.47
2023-03-18T18:54:53.685Z,0.43
2023-03-18T18:57:29.757Z,0.50
2023-03-18T19:00:01.484Z,0.75
2023-03-18T19:02:35.500Z,0.60
2023-03-18T19:05:08.435Z,0.38
2023-03-18T19:07:41.348Z,0.50
2023-03-18T19:10:16.543Z,0.60
2023-03-18T19:12:48.157Z,0.25
2023-03-18T19:15:22.097Z,0.57
2023-03-18T19:17:55.841Z,0.45
2023-03-18T19:20:33.776Z,0.40
2023-03-18T19:23:04.931Z,0.25
2023-03-18T19:25:35.578Z,0.20
2023-03-18T19:28:06.892Z,0.55
2023-03-18T19:30:39.705Z,0.38
2023-03-18T19:33:18.233Z,0.80
2023-03-18T19:35:48.245Z,0.22
2023-03-18T19:38:24.059Z,0.68
2023-03-18T19:40:56.349Z,0.20
2023-03-18T19:43:26.745Z,0.20
2023-03-18T19:45:59.116Z,0.75
2023-03-18T19:48:29.777Z,0.30
2023-03-18T19:51:00.196Z,0.47
2023-03-18T19:53:31.859Z,0.73
2023-03-18T19:56:04.014Z,0.63
2023-03-18T19:58:35.089Z,0.17
2023-03-18T20:01:06.991Z,0.43
2023-03-18T20:03:38.283Z,0.65
2023-03-18T20:06:09.786Z,0.17
2023-03-18T20:08:40.460Z,0.47
2023-03-18T20:11:17.124Z,0.10
2023-03-18T20:13:48.062Z,0.20
2023-03-18T20:16:22.202Z,1.23
2023-03-18T20:18:52.340Z,0.93
2023-03-18T20:21:31.275Z,0.20
2023-03-18T20:24:10.039Z,0.63
2023-03-18T20:26:40.431Z,0.40
2023-03-18T20:29:19.824Z,0.28
2023-03-18T20:31:51.973Z,0.20
2023-03-18T20:34:23.338Z,0.38
2023-03-18T20:36:53.651Z,0.43
2023-03-18T20:39:25.118Z,0.60
2023-03-18T20:41:56.284Z,0.88
2023-03-18T20:44:26.970Z,0.47
2023-03-18T20:46:59.324Z,0.85
2023-03-18T20:49:29.479Z,0.85
2023-03-18T20:51:59.860Z,0.80
2023-03-18T20:54:33.757Z,0.60
2023-03-18T20:57:04.151Z,0.30
2023-03-18T20:59:34.353Z,0.52
2023-03-18T21:02:06.080Z,0.50
2023-03-18T21:04:37.423Z,1.10
2023-03-18T21:07:07.504Z,0.50
2023-03-18T21:09:37.537Z,0.47
2023-03-18T21:12:08.792Z,0.47
2023-03-18T21:14:39.181Z,0.22
2023-03-18T21:17:19.532Z,0.65
2023-03-18T21:19:50.230Z,0.20
2023-03-18T21:22:24.444Z,0.30
2023-03-18T21:24:54.508Z,0.32
2023-03-18T21:27:27.155Z,0.80
2023-03-18T21:29:58.384Z,0.20
2023-03-18T21:32:33.918Z,0.30
2023-03-18T21:35:04.094Z,0.40
2023-03-18T21:37:33.792Z,0.47
2023-03-18T21:40:04.026Z,0.57
2023-03-18T21:42:34.684Z,0.55
2023-03-18T21:45:04.839Z,0.60
2023-03-18T21:47:37.048Z,0.52
2023-03-18T21:50:07.457Z,0.40
2023-03-18T21:52:39.025Z,0.40
2023-03-18T21:55:13.809Z,0.30
2023-03-18T21:57:43.772Z,0.30
2023-03-18T22:00:20.385Z,0.82
2023-03-18T22:02:52.517Z,0.22
2023-03-18T22:05:25.006Z,0.43
2023-03-18T22:07:54.621Z,0.30
2023-03-18T22:10:26.163Z,0.57
2023-03-18T22:12:56.354Z,0.82
2023-03-18T22:15:42.265Z,0.43
2023-03-18T22:18:15.554Z,0.60
2023-03-18T22:20:47.738Z,0.40
2023-03-18T22:23:21.638Z,0.45
2023-03-18T22:25:54.757Z,0.57
2023-03-18T22:28:28.546Z,0.63
2023-03-18T22:31:01.411Z,0.50
2023-03-18T22:33:36.721Z,0.38
2023-03-18T22:36:07.180Z,0.52
2023-03-18T22:38:37.637Z,0.50
2023-03-18T22:41:07.939Z,0.25
2023-03-18T22:43:40.133Z,0.47
2023-03-18T22:46:12.720Z,0.98
2023-03-18T22:48:44.789Z,0.20
2023-03-18T22:51:25.786Z,0.32
2023-03-18T22:53:57.204Z,0.30
2023-03-18T22:56:27.679Z,0.38
2023-03-18T22:58:58.178Z,0.10
2023-03-18T23:01:33.415Z,0.55
2023-03-18T23:04:05.665Z,0.22
2023-03-18T23:06:36.054Z,0.50
2023-03-18T23:09:06.147Z,0.13
2023-03-18T23:11:37.904Z,0.32
2023-03-18T23:14:12.695Z,0.20
2023-03-18T23:16:43.118Z,0.32
2023-03-18T23:19:16.102Z,0.28
2023-03-18T23:21:45.891Z,0.40
2023-03-18T23:24:16.511Z,0.35
2023-03-18T23:26:46.824Z,0.30
2023-03-18T23:29:17.192Z,0.30
2023-03-18T23:31:47.266Z,0.57
2023-03-18T23:34:19.553Z,1.23
2023-03-18T23:36:50.311Z,0.20
2023-03-18T23:39:20.657Z,0.52
2023-03-18T23:41:51.599Z,0.30
2023-03-18T23:44:22.104Z,0.50
2023-03-18T23:46:52.985Z,0.00
2023-03-18T23:49:25.321Z,0.52
2023-03-18T23:51:55.677Z,0.93
2023-03-18T23:54:25.678Z,0.43
2023-03-18T23:56:55.669Z,0.35
2023-03-18T23:59:25.837Z,0.73
